sensor_id;sensor_type;location;lat;lon;timestamp;temperature;humidity
67358;HTU21D;54240;51.096;5.878;2023-08-20T00:00:19;20.88;-6.00
67358;HTU21D;54240;51.096;5.878;2023-08-20T00:02:46;20.81;-6.00
67358;HTU21D;54240;51.096;5.878;2023-08-20T00:05:17;20.77;-6.00
67358;HTU21D;54240;51.096;5.878;2023-08-20T00:07:43;20.74;-6.00
67358;HTU21D;54240;51.096;5.878;2023-08-20T00:10:09;20.73;-6.00
67358;HTU21D;54240;51.096;5.878;2023-08-20T00:12:35;20.76;-6.00
67358;HTU21D;54240;51.096;5.878;2023-08-20T00:15:03;20.76;-6.00
67358;HTU21D;54240;51.096;5.878;2023-08-20T00:17:37;20.76;-6.00
67358;HTU21D;54240;51.096;5.878;2023-08-20T00:20:05;20.76;-6.00
67358;HTU21D;54240;51.096;5.878;2023-08-20T00:22:37;20.77;-6.00
67358;HTU21D;54240;51.096;5.878;2023-08-20T00:25:03;20.75;-6.00
67358;HTU21D;54240;51.096;5.878;2023-08-20T00:27:32;20.74;-6.00
67358;HTU21D;54240;51.096;5.878;2023-08-20T00:29:58;20.70;-6.00
67358;HTU21D;54240;51.096;5.878;2023-08-20T00:32:24;20.64;-6.00
67358;HTU21D;54240;51.096;5.878;2023-08-20T00:34:50;20.58;-6.00
67358;HTU21D;54240;51.096;5.878;2023-08-20T00:37:16;20.55;-6.00
67358;HTU21D;54240;51.096;5.878;2023-08-20T00:39:42;20.54;-6.00
67358;HTU21D;54240;51.096;5.878;2023-08-20T00:42:08;20.55;-6.00
67358;HTU21D;54240;51.096;5.878;2023-08-20T00:44:34;20.57;-6.00
67358;HTU21D;54240;51.096;5.878;2023-08-20T00:47:02;20.58;-6.00
67358;HTU21D;54240;51.096;5.878;2023-08-20T00:49:31;20.57;-6.00
67358;HTU21D;54240;51.096;5.878;2023-08-20T00:51:58;20.54;-6.00
67358;HTU21D;54240;51.096;5.878;2023-08-20T00:54:26;20.51;-6.00
67358;HTU21D;54240;51.096;5.878;2023-08-20T00:56:54;20.50;-6.00
67358;HTU21D;54240;51.096;5.878;2023-08-20T00:59:20;20.47;-6.00
67358;HTU21D;54240;51.096;5.878;2023-08-20T01:01:46;20.44;-6.00
67358;HTU21D;54240;51.096;5.878;2023-08-20T01:04:12;20.42;-6.00
67358;HTU21D;54240;51.096;5.878;2023-08-20T01:07:00;20.39;-6.00
67358;HTU21D;54240;51.096;5.878;2023-08-20T01:12:06;20.32;-6.00
67358;HTU21D;54240;51.096;5.878;2023-08-20T01:14:32;20.32;-6.00
67358;HTU21D;54240;51.096;5.878;2023-08-20T01:16:59;20.32;-6.00
67358;HTU21D;54240;51.096;5.878;2023-08-20T01:19:25;20.31;-6.00
67358;HTU21D;54240;51.096;5.878;2023-08-20T01:24:59;20.28;-6.00
67358;HTU21D;54240;51.096;5.878;2023-08-20T01:27:52;20.27;-6.00
67358;HTU21D;54240;51.096;5.878;2023-08-20T01:30:21;20.22;-6.00
67358;HTU21D;54240;51.096;5.878;2023-08-20T01:32:52;20.20;-6.00
67358;HTU21D;54240;51.096;5.878;2023-08-20T01:35:18;20.18;-6.00
67358;HTU21D;54240;51.096;5.878;2023-08-20T01:37:44;20.18;-6.00
67358;HTU21D;54240;51.096;5.878;2023-08-20T01:40:11;20.14;-6.00
67358;HTU21D;54240;51.096;5.878;2023-08-20T01:42:38;20.13;-6.00
67358;HTU21D;54240;51.096;5.878;2023-08-20T01:45:04;20.13;-6.00
67358;HTU21D;54240;51.096;5.878;2023-08-20T01:47:35;20.14;-6.00
67358;HTU21D;54240;51.096;5.878;2023-08-20T01:50:01;20.15;-6.00
67358;HTU21D;54240;51.096;5.878;2023-08-20T01:52:27;20.17;-6.00
67358;HTU21D;54240;51.096;5.878;2023-08-20T01:54:53;20.19;-6.00
67358;HTU21D;54240;51.096;5.878;2023-08-20T01:57:19;20.21;-6.00
67358;HTU21D;54240;51.096;5.878;2023-08-20T01:59:45;20.21;-6.00
67358;HTU21D;54240;51.096;5.878;2023-08-20T02:02:11;20.21;-6.00
67358;HTU21D;54240;51.096;5.878;2023-08-20T02:04:37;20.18;-6.00
67358;HTU21D;54240;51.096;5.878;2023-08-20T02:07:04;20.14;-6.00
67358;HTU21D;54240;51.096;5.878;2023-08-20T02:09:30;20.09;-6.00
67358;HTU21D;54240;51.096;5.878;2023-08-20T02:11:55;20.02;-6.00
67358;HTU21D;54240;51.096;5.878;2023-08-20T02:14:21;19.99;-6.00
67358;HTU21D;54240;51.096;5.878;2023-08-20T02:16:47;19.94;-6.00
67358;HTU21D;54240;51.096;5.878;2023-08-20T02:19:13;19.90;-6.00
67358;HTU21D;54240;51.096;5.878;2023-08-20T02:21:40;19.87;-6.00
67358;HTU21D;54240;51.096;5.878;2023-08-20T02:24:06;19.86;-6.00
67358;HTU21D;54240;51.096;5.878;2023-08-20T02:26:32;19.82;-6.00
67358;HTU21D;54240;51.096;5.878;2023-08-20T02:28:58;0.00;0.00
67358;HTU21D;54240;51.096;5.878;2023-08-20T02:31:25;0.00;0.00
67358;HTU21D;54240;51.096;5.878;2023-08-20T02:33:51;19.69;-6.00
67358;HTU21D;54240;51.096;5.878;2023-08-20T02:36:17;19.70;-6.00
67358;HTU21D;54240;51.096;5.878;2023-08-20T02:38:44;19.70;-6.00
67358;HTU21D;54240;51.096;5.878;2023-08-20T02:41:10;0.00;0.00
67358;HTU21D;54240;51.096;5.878;2023-08-20T02:43:37;19.69;-6.00
67358;HTU21D;54240;51.096;5.878;2023-08-20T02:46:03;0.00;0.00
67358;HTU21D;54240;51.096;5.878;2023-08-20T02:48:30;0.00;0.00
67358;HTU21D;54240;51.096;5.878;2023-08-20T02:50:56;0.00;0.00
67358;HTU21D;54240;51.096;5.878;2023-08-20T02:53:22;0.00;0.00
67358;HTU21D;54240;51.096;5.878;2023-08-20T02:55:48;0.00;0.00
67358;HTU21D;54240;51.096;5.878;2023-08-20T02:58:15;19.60;-6.00
67358;HTU21D;54240;51.096;5.878;2023-08-20T03:00:41;0.00;0.00
67358;HTU21D;54240;51.096;5.878;2023-08-20T03:03:08;19.54;-6.00
67358;HTU21D;54240;51.096;5.878;2023-08-20T03:05:37;0.00;0.00
67358;HTU21D;54240;51.096;5.878;2023-08-20T03:08:04;0.00;0.00
67358;HTU21D;54240;51.096;5.878;2023-08-20T03:10:31;0.00;-6.00
67358;HTU21D;54240;51.096;5.878;2023-08-20T03:13:00;0.00;0.00
67358;HTU21D;54240;51.096;5.878;2023-08-20T03:15:27;19.46;-6.00
67358;HTU21D;54240;51.096;5.878;2023-08-20T03:17:53;19.48;-6.00
67358;HTU21D;54240;51.096;5.878;2023-08-20T03:20:19;19.45;-6.00
67358;HTU21D;54240;51.096;5.878;2023-08-20T03:22:45;19.45;-6.00
67358;HTU21D;54240;51.096;5.878;2023-08-20T03:25:11;19.45;-6.00
67358;HTU21D;54240;51.096;5.878;2023-08-20T03:27:37;19.43;-6.00
67358;HTU21D;54240;51.096;5.878;2023-08-20T03:30:04;19.44;-6.00
67358;HTU21D;54240;51.096;5.878;2023-08-20T03:32:31;19.45;-6.00
67358;HTU21D;54240;51.096;5.878;2023-08-20T03:34:57;19.44;-6.00
67358;HTU21D;54240;51.096;5.878;2023-08-20T03:37:25;19.46;-6.00
67358;HTU21D;54240;51.096;5.878;2023-08-20T03:39:51;19.44;-6.00
67358;HTU21D;54240;51.096;5.878;2023-08-20T03:42:17;19.47;-6.00
67358;HTU21D;54240;51.096;5.878;2023-08-20T03:44:43;19.46;-6.00
67358;HTU21D;54240;51.096;5.878;2023-08-20T03:47:09;19.46;-6.00
67358;HTU21D;54240;51.096;5.878;2023-08-20T03:49:36;19.42;-6.00
67358;HTU21D;54240;51.096;5.878;2023-08-20T03:52:02;19.43;-6.00
67358;HTU21D;54240;51.096;5.878;2023-08-20T03:54:29;19.40;-6.00
67358;HTU21D;54240;51.096;5.878;2023-08-20T03:56:56;19.40;-6.00
67358;HTU21D;54240;51.096;5.878;2023-08-20T03:59:23;19.36;-6.00
67358;HTU21D;54240;51.096;5.878;2023-08-20T04:01:48;19.30;-6.00
67358;HTU21D;54240;51.096;5.878;2023-08-20T04:04:14;19.27;-6.00
67358;HTU21D;54240;51.096;5.878;2023-08-20T04:06:41;19.25;-6.00
67358;HTU21D;54240;51.096;5.878;2023-08-20T04:09:07;19.24;-6.00
67358;HTU21D;54240;51.096;5.878;2023-08-20T04:11:35;19.22;-6.00
67358;HTU21D;54240;51.096;5.878;2023-08-20T04:14:02;19.17;-6.00
67358;HTU21D;54240;51.096;5.878;2023-08-20T04:16:29;19.15;-6.00
67358;HTU21D;54240;51.096;5.878;2023-08-20T04:18:55;19.13;-6.00
67358;HTU21D;54240;51.096;5.878;2023-08-20T04:21:22;19.10;-6.00
67358;HTU21D;54240;51.096;5.878;2023-08-20T04:23:49;19.05;-6.00
67358;HTU21D;54240;51.096;5.878;2023-08-20T04:26:14;18.98;-6.00
67358;HTU21D;54240;51.096;5.878;2023-08-20T04:28:40;18.92;-6.00
67358;HTU21D;54240;51.096;5.878;2023-08-20T04:31:07;18.91;-6.00
67358;HTU21D;54240;51.096;5.878;2023-08-20T04:33:46;18.87;-6.00
67358;HTU21D;54240;51.096;5.878;2023-08-20T04:36:14;18.86;-6.00
67358;HTU21D;54240;51.096;5.878;2023-08-20T04:38:40;18.84;-6.00
67358;HTU21D;54240;51.096;5.878;2023-08-20T04:41:06;-3.48;0.00
67358;HTU21D;54240;51.096;5.878;2023-08-20T04:43:32;18.79;-6.00
67358;HTU21D;54240;51.096;5.878;2023-08-20T04:45:59;18.77;-6.00
67358;HTU21D;54240;51.096;5.878;2023-08-20T04:48:26;18.76;-6.00
67358;HTU21D;54240;51.096;5.878;2023-08-20T04:50:52;18.74;-6.00
67358;HTU21D;54240;51.096;5.878;2023-08-20T04:53:18;18.74;-6.00
67358;HTU21D;54240;51.096;5.878;2023-08-20T04:55:45;18.70;-6.00
67358;HTU21D;54240;51.096;5.878;2023-08-20T04:58:11;18.65;-6.00
67358;HTU21D;54240;51.096;5.878;2023-08-20T05:00:37;18.59;-6.00
67358;HTU21D;54240;51.096;5.878;2023-08-20T05:03:06;18.58;-6.00
67358;HTU21D;54240;51.096;5.878;2023-08-20T05:05:31;18.57;-6.00
67358;HTU21D;54240;51.096;5.878;2023-08-20T05:07:57;18.58;-6.00
67358;HTU21D;54240;51.096;5.878;2023-08-20T05:10:23;18.63;-6.00
67358;HTU21D;54240;51.096;5.878;2023-08-20T05:12:49;18.68;-6.00
67358;HTU21D;54240;51.096;5.878;2023-08-20T05:15:15;18.74;-6.00
67358;HTU21D;54240;51.096;5.878;2023-08-20T05:17:41;18.80;-6.00
67358;HTU21D;54240;51.096;5.878;2023-08-20T05:20:07;18.89;-6.00
67358;HTU21D;54240;51.096;5.878;2023-08-20T05:22:34;18.98;-6.00
67358;HTU21D;54240;51.096;5.878;2023-08-20T05:25:00;19.02;-6.00
67358;HTU21D;54240;51.096;5.878;2023-08-20T05:27:27;19.02;-6.00
67358;HTU21D;54240;51.096;5.878;2023-08-20T05:29:54;19.00;-6.00
67358;HTU21D;54240;51.096;5.878;2023-08-20T05:32:20;18.99;-6.00
67358;HTU21D;54240;51.096;5.878;2023-08-20T05:34:46;19.00;-6.00
67358;HTU21D;54240;51.096;5.878;2023-08-20T05:37:12;19.07;-6.00
67358;HTU21D;54240;51.096;5.878;2023-08-20T05:39:41;19.12;-6.00
67358;HTU21D;54240;51.096;5.878;2023-08-20T05:42:07;19.15;-6.00
67358;HTU21D;54240;51.096;5.878;2023-08-20T05:44:33;19.17;-6.00
67358;HTU21D;54240;51.096;5.878;2023-08-20T05:47:00;19.21;-6.00
67358;HTU21D;54240;51.096;5.878;2023-08-20T05:49:27;19.29;-6.00
67358;HTU21D;54240;51.096;5.878;2023-08-20T05:51:53;19.40;-6.00
67358;HTU21D;54240;51.096;5.878;2023-08-20T05:54:19;19.46;-6.00
67358;HTU21D;54240;51.096;5.878;2023-08-20T05:56:45;19.55;-6.00
67358;HTU21D;54240;51.096;5.878;2023-08-20T05:59:11;19.67;-6.00
67358;HTU21D;54240;51.096;5.878;2023-08-20T06:01:37;19.79;-6.00
67358;HTU21D;54240;51.096;5.878;2023-08-20T06:04:03;19.95;-6.00
67358;HTU21D;54240;51.096;5.878;2023-08-20T06:06:29;20.04;-6.00
67358;HTU21D;54240;51.096;5.878;2023-08-20T06:08:55;20.11;-6.00
67358;HTU21D;54240;51.096;5.878;2023-08-20T06:11:21;20.18;-6.00
67358;HTU21D;54240;51.096;5.878;2023-08-20T06:13:47;20.28;-6.00
67358;HTU21D;54240;51.096;5.878;2023-08-20T06:16:13;20.43;-6.00
67358;HTU21D;54240;51.096;5.878;2023-08-20T06:18:38;20.51;-6.00
67358;HTU21D;54240;51.096;5.878;2023-08-20T06:21:04;20.58;-6.00
67358;HTU21D;54240;51.096;5.878;2023-08-20T06:23:30;20.68;-6.00
67358;HTU21D;54240;51.096;5.878;2023-08-20T06:25:56;20.77;-6.00
67358;HTU21D;54240;51.096;5.878;2023-08-20T06:28:22;20.79;-6.00
67358;HTU21D;54240;51.096;5.878;2023-08-20T06:30:48;20.81;-6.00
67358;HTU21D;54240;51.096;5.878;2023-08-20T06:33:14;20.87;-6.00
67358;HTU21D;54240;51.096;5.878;2023-08-20T06:35:40;20.90;-6.00
67358;HTU21D;54240;51.096;5.878;2023-08-20T06:38:08;20.86;-6.00
67358;HTU21D;54240;51.096;5.878;2023-08-20T06:40:34;20.85;-6.00
67358;HTU21D;54240;51.096;5.878;2023-08-20T06:42:59;20.91;-6.00
67358;HTU21D;54240;51.096;5.878;2023-08-20T06:45:25;21.01;-6.00
67358;HTU21D;54240;51.096;5.878;2023-08-20T06:47:51;21.13;-6.00
67358;HTU21D;54240;51.096;5.878;2023-08-20T06:50:17;21.21;-6.00
67358;HTU21D;54240;51.096;5.878;2023-08-20T06:52:43;21.29;-6.00
67358;HTU21D;54240;51.096;5.878;2023-08-20T06:55:09;21.38;-6.00
67358;HTU21D;54240;51.096;5.878;2023-08-20T06:57:35;21.42;-6.00
67358;HTU21D;54240;51.096;5.878;2023-08-20T07:00:01;21.49;-6.00
67358;HTU21D;54240;51.096;5.878;2023-08-20T07:02:30;21.55;-6.00
67358;HTU21D;54240;51.096;5.878;2023-08-20T07:04:56;21.65;-6.00
67358;HTU21D;54240;51.096;5.878;2023-08-20T07:07:21;21.77;-6.00
67358;HTU21D;54240;51.096;5.878;2023-08-20T07:09:48;21.87;-6.00
67358;HTU21D;54240;51.096;5.878;2023-08-20T07:12:13;22.02;-6.00
67358;HTU21D;54240;51.096;5.878;2023-08-20T07:14:39;22.19;-6.00
67358;HTU21D;54240;51.096;5.878;2023-08-20T07:17:05;22.37;-6.00
67358;HTU21D;54240;51.096;5.878;2023-08-20T07:19:31;22.57;-6.00
67358;HTU21D;54240;51.096;5.878;2023-08-20T07:21:57;22.83;-6.00
67358;HTU21D;54240;51.096;5.878;2023-08-20T07:24:23;22.95;-6.00
67358;HTU21D;54240;51.096;5.878;2023-08-20T07:26:52;23.00;-6.00
67358;HTU21D;54240;51.096;5.878;2023-08-20T07:29:18;23.13;-6.00
67358;HTU21D;54240;51.096;5.878;2023-08-20T07:31:44;23.32;-6.00
67358;HTU21D;54240;51.096;5.878;2023-08-20T07:34:10;23.50;-6.00
67358;HTU21D;54240;51.096;5.878;2023-08-20T07:36:35;23.54;-6.00
67358;HTU21D;54240;51.096;5.878;2023-08-20T07:39:01;23.57;-6.00
67358;HTU21D;54240;51.096;5.878;2023-08-20T07:41:28;23.68;-6.00
67358;HTU21D;54240;51.096;5.878;2023-08-20T07:43:54;23.84;-6.00
67358;HTU21D;54240;51.096;5.878;2023-08-20T07:46:20;24.10;-6.00
67358;HTU21D;54240;51.096;5.878;2023-08-20T07:48:46;24.40;-6.00
67358;HTU21D;54240;51.096;5.878;2023-08-20T07:51:12;24.73;0.00
67358;HTU21D;54240;51.096;5.878;2023-08-20T07:53:37;25.15;-6.00
67358;HTU21D;54240;51.096;5.878;2023-08-20T07:56:04;25.64;-6.00
67358;HTU21D;54240;51.096;5.878;2023-08-20T07:58:30;26.11;-6.00
67358;HTU21D;54240;51.096;5.878;2023-08-20T08:00:56;26.56;-6.00
67358;HTU21D;54240;51.096;5.878;2023-08-20T08:03:24;26.99;-6.00
67358;HTU21D;54240;51.096;5.878;2023-08-20T08:05:51;27.15;-6.00
67358;HTU21D;54240;51.096;5.878;2023-08-20T08:08:18;27.30;-6.00
67358;HTU21D;54240;51.096;5.878;2023-08-20T08:10:45;27.54;-6.00
67358;HTU21D;54240;51.096;5.878;2023-08-20T08:13:18;27.76;-6.00
67358;HTU21D;54240;51.096;5.878;2023-08-20T08:15:45;28.05;-6.00
67358;HTU21D;54240;51.096;5.878;2023-08-20T08:18:12;28.38;-6.00
67358;HTU21D;54240;51.096;5.878;2023-08-20T08:20:38;28.73;-6.00
67358;HTU21D;54240;51.096;5.878;2023-08-20T08:23:04;28.94;-6.00
67358;HTU21D;54240;51.096;5.878;2023-08-20T08:25:30;29.13;-6.00
67358;HTU21D;54240;51.096;5.878;2023-08-20T08:27:56;29.32;-6.00
67358;HTU21D;54240;51.096;5.878;2023-08-20T08:30:22;29.70;-6.00
67358;HTU21D;54240;51.096;5.878;2023-08-20T08:32:48;30.04;-6.00
67358;HTU21D;54240;51.096;5.878;2023-08-20T08:35:14;30.16;-6.00
67358;HTU21D;54240;51.096;5.878;2023-08-20T08:37:40;30.22;-6.00
67358;HTU21D;54240;51.096;5.878;2023-08-20T08:40:06;30.16;-6.00
67358;HTU21D;54240;51.096;5.878;2023-08-20T08:42:33;30.06;-6.00
67358;HTU21D;54240;51.096;5.878;2023-08-20T08:45:03;30.10;-6.00
67358;HTU21D;54240;51.096;5.878;2023-08-20T08:47:30;30.51;-6.00
67358;HTU21D;54240;51.096;5.878;2023-08-20T08:49:56;30.96;-6.00
67358;HTU21D;54240;51.096;5.878;2023-08-20T08:52:23;31.44;-6.00
67358;HTU21D;54240;51.096;5.878;2023-08-20T08:54:49;31.81;-6.00
67358;HTU21D;54240;51.096;5.878;2023-08-20T08:57:15;32.12;-6.00
67358;HTU21D;54240;51.096;5.878;2023-08-20T08:59:42;31.95;-6.00
67358;HTU21D;54240;51.096;5.878;2023-08-20T09:02:10;31.76;-6.00
67358;HTU21D;54240;51.096;5.878;2023-08-20T09:04:40;30.94;-6.00
67358;HTU21D;54240;51.096;5.878;2023-08-20T09:07:14;30.70;-6.00
67358;HTU21D;54240;51.096;5.878;2023-08-20T09:09:45;30.83;-6.00
67358;HTU21D;54240;51.096;5.878;2023-08-20T09:12:19;30.35;-6.00
67358;HTU21D;54240;51.096;5.878;2023-08-20T09:14:50;30.19;-6.00
67358;HTU21D;54240;51.096;5.878;2023-08-20T09:17:16;30.10;-6.00
67358;HTU21D;54240;51.096;5.878;2023-08-20T09:19:44;30.41;-6.00
67358;HTU21D;54240;51.096;5.878;2023-08-20T09:22:12;30.92;-6.00
67358;HTU21D;54240;51.096;5.878;2023-08-20T09:27:09;31.21;-6.00
67358;HTU21D;54240;51.096;5.878;2023-08-20T09:29:48;30.85;-6.00
67358;HTU21D;54240;51.096;5.878;2023-08-20T09:32:17;30.78;-6.00
67358;HTU21D;54240;51.096;5.878;2023-08-20T09:34:43;31.24;-6.00
67358;HTU21D;54240;51.096;5.878;2023-08-20T09:37:10;31.11;-6.00
67358;HTU21D;54240;51.096;5.878;2023-08-20T09:39:36;31.37;-6.00
67358;HTU21D;54240;51.096;5.878;2023-08-20T09:42:04;31.53;-6.00
67358;HTU21D;54240;51.096;5.878;2023-08-20T09:44:33;31.40;-6.00
67358;HTU21D;54240;51.096;5.878;2023-08-20T09:47:03;31.43;-6.00
67358;HTU21D;54240;51.096;5.878;2023-08-20T09:49:36;31.14;-6.00
67358;HTU21D;54240;51.096;5.878;2023-08-20T09:52:08;31.08;-6.00
67358;HTU21D;54240;51.096;5.878;2023-08-20T09:54:36;31.37;-6.00
67358;HTU21D;54240;51.096;5.878;2023-08-20T09:57:12;30.99;-6.00
67358;HTU21D;54240;51.096;5.878;2023-08-20T09:59:41;30.48;-6.00
67358;HTU21D;54240;51.096;5.878;2023-08-20T10:02:12;30.18;-6.00
67358;HTU21D;54240;51.096;5.878;2023-08-20T10:04:39;30.30;-6.00
67358;HTU21D;54240;51.096;5.878;2023-08-20T10:07:06;30.55;-6.00
67358;HTU21D;54240;51.096;5.878;2023-08-20T10:09:33;30.86;-6.00
67358;HTU21D;54240;51.096;5.878;2023-08-20T10:12:01;31.73;-6.00
67358;HTU21D;54240;51.096;5.878;2023-08-20T10:14:27;32.74;-6.00
67358;HTU21D;54240;51.096;5.878;2023-08-20T10:16:53;33.16;-6.00
67358;HTU21D;54240;51.096;5.878;2023-08-20T10:19:19;32.28;-6.00
67358;HTU21D;54240;51.096;5.878;2023-08-20T10:21:45;31.75;-6.00
67358;HTU21D;54240;51.096;5.878;2023-08-20T10:24:17;31.95;-6.00
67358;HTU21D;54240;51.096;5.878;2023-08-20T10:26:48;32.32;-6.00
67358;HTU21D;54240;51.096;5.878;2023-08-20T10:29:40;31.85;-6.00
67358;HTU21D;54240;51.096;5.878;2023-08-20T10:32:11;31.81;-6.00
67358;HTU21D;54240;51.096;5.878;2023-08-20T10:34:39;32.26;-6.00
67358;HTU21D;54240;51.096;5.878;2023-08-20T10:37:14;32.57;-6.00
67358;HTU21D;54240;51.096;5.878;2023-08-20T10:39:40;32.69;-6.00
67358;HTU21D;54240;51.096;5.878;2023-08-20T10:45:01;33.02;-6.00
67358;HTU21D;54240;51.096;5.878;2023-08-20T10:47:55;33.37;-6.00
67358;HTU21D;54240;51.096;5.878;2023-08-20T10:50:23;33.81;-6.00
67358;HTU21D;54240;51.096;5.878;2023-08-20T10:52:55;34.42;-6.00
67358;HTU21D;54240;51.096;5.878;2023-08-20T10:55:24;35.07;-6.00
67358;HTU21D;54240;51.096;5.878;2023-08-20T10:57:57;34.93;-6.00
67358;HTU21D;54240;51.096;5.878;2023-08-20T11:00:25;35.18;-6.00
67358;HTU21D;54240;51.096;5.878;2023-08-20T11:02:52;35.35;-6.00
67358;HTU21D;54240;51.096;5.878;2023-08-20T11:05:20;35.42;-6.00
67358;HTU21D;54240;51.096;5.878;2023-08-20T11:07:49;34.40;-6.00
67358;HTU21D;54240;51.096;5.878;2023-08-20T11:10:16;33.81;-6.00
67358;HTU21D;54240;51.096;5.878;2023-08-20T11:12:45;34.04;-6.00
67358;HTU21D;54240;51.096;5.878;2023-08-20T11:15:12;34.24;-6.00
67358;HTU21D;54240;51.096;5.878;2023-08-20T11:17:45;34.69;-6.00
67358;HTU21D;54240;51.096;5.878;2023-08-20T11:20:14;34.27;-6.00
67358;HTU21D;54240;51.096;5.878;2023-08-20T11:22:44;34.12;-6.00
67358;HTU21D;54240;51.096;5.878;2023-08-20T11:25:11;34.34;-6.00
67358;HTU21D;54240;51.096;5.878;2023-08-20T11:27:44;34.73;-6.00
67358;HTU21D;54240;51.096;5.878;2023-08-20T11:30:10;35.20;-6.00
67358;HTU21D;54240;51.096;5.878;2023-08-20T11:32:38;35.67;-6.00
67358;HTU21D;54240;51.096;5.878;2023-08-20T11:35:08;36.07;-6.00
67358;HTU21D;54240;51.096;5.878;2023-08-20T11:37:34;35.77;-6.00
67358;HTU21D;54240;51.096;5.878;2023-08-20T11:40:00;35.74;-6.00
67358;HTU21D;54240;51.096;5.878;2023-08-20T11:42:26;36.47;-6.00
67358;HTU21D;54240;51.096;5.878;2023-08-20T11:44:55;0.00;0.00
67358;HTU21D;54240;51.096;5.878;2023-08-20T11:47:21;37.74;-6.00
67358;HTU21D;54240;51.096;5.878;2023-08-20T11:49:47;35.51;0.00
67358;HTU21D;54240;51.096;5.878;2023-08-20T11:52:13;37.44;-6.00
67358;HTU21D;54240;51.096;5.878;2023-08-20T11:54:39;36.71;-6.00
67358;HTU21D;54240;51.096;5.878;2023-08-20T11:57:06;36.53;-6.00
67358;HTU21D;54240;51.096;5.878;2023-08-20T11:59:33;0.00;0.00
67358;HTU21D;54240;51.096;5.878;2023-08-20T12:02:02;0.00;0.00
67358;HTU21D;54240;51.096;5.878;2023-08-20T12:04:31;34.12;-6.00
67358;HTU21D;54240;51.096;5.878;2023-08-20T12:07:53;34.07;-6.00
67358;HTU21D;54240;51.096;5.878;2023-08-20T12:09:49;34.09;-6.00
67358;HTU21D;54240;51.096;5.878;2023-08-20T12:12:19;33.71;-6.00
67358;HTU21D;54240;51.096;5.878;2023-08-20T12:14:48;33.17;-6.00
67358;HTU21D;54240;51.096;5.878;2023-08-20T12:17:18;32.78;-6.00
67358;HTU21D;54240;51.096;5.878;2023-08-20T12:19:45;32.58;-6.00
67358;HTU21D;54240;51.096;5.878;2023-08-20T12:22:10;32.72;-6.00
67358;HTU21D;54240;51.096;5.878;2023-08-20T12:24:38;32.67;-6.00
67358;HTU21D;54240;51.096;5.878;2023-08-20T12:27:03;32.29;-6.00
67358;HTU21D;54240;51.096;5.878;2023-08-20T12:29:30;32.54;-6.00
67358;HTU21D;54240;51.096;5.878;2023-08-20T12:31:55;32.73;-6.00
67358;HTU21D;54240;51.096;5.878;2023-08-20T12:34:21;32.74;-6.00
67358;HTU21D;54240;51.096;5.878;2023-08-20T12:36:48;32.84;-6.00
67358;HTU21D;54240;51.096;5.878;2023-08-20T12:39:14;32.15;-6.00
67358;HTU21D;54240;51.096;5.878;2023-08-20T12:41:40;31.92;-6.00
67358;HTU21D;54240;51.096;5.878;2023-08-20T12:44:07;32.00;-6.00
67358;HTU21D;54240;51.096;5.878;2023-08-20T12:46:33;31.93;-6.00
67358;HTU21D;54240;51.096;5.878;2023-08-20T12:48:59;32.02;-6.00
67358;HTU21D;54240;51.096;5.878;2023-08-20T12:51:26;32.37;-6.00
67358;HTU21D;54240;51.096;5.878;2023-08-20T12:53:52;32.77;-6.00
67358;HTU21D;54240;51.096;5.878;2023-08-20T12:56:17;33.04;-6.00
67358;HTU21D;54240;51.096;5.878;2023-08-20T12:58:43;32.57;-6.00
67358;HTU21D;54240;51.096;5.878;2023-08-20T13:01:09;32.27;-6.00
67358;HTU21D;54240;51.096;5.878;2023-08-20T13:03:36;32.44;-6.00
67358;HTU21D;54240;51.096;5.878;2023-08-20T13:06:03;32.98;-6.00
67358;HTU21D;54240;51.096;5.878;2023-08-20T13:08:29;33.15;-6.00
67358;HTU21D;54240;51.096;5.878;2023-08-20T13:10:57;33.32;-6.00
67358;HTU21D;54240;51.096;5.878;2023-08-20T13:13:24;32.78;-6.00
67358;HTU21D;54240;51.096;5.878;2023-08-20T13:15:51;32.81;-6.00
67358;HTU21D;54240;51.096;5.878;2023-08-20T13:18:18;32.01;-6.00
67358;HTU21D;54240;51.096;5.878;2023-08-20T13:20:44;32.24;-6.00
67358;HTU21D;54240;51.096;5.878;2023-08-20T13:23:10;32.33;-6.00
67358;HTU21D;54240;51.096;5.878;2023-08-20T13:25:36;32.42;-6.00
67358;HTU21D;54240;51.096;5.878;2023-08-20T13:28:02;32.57;-6.00
67358;HTU21D;54240;51.096;5.878;2023-08-20T13:30:29;33.05;-6.00
67358;HTU21D;54240;51.096;5.878;2023-08-20T13:32:55;33.35;-6.00
67358;HTU21D;54240;51.096;5.878;2023-08-20T13:35:20;33.67;-6.00
67358;HTU21D;54240;51.096;5.878;2023-08-20T13:37:48;33.91;-6.00
67358;HTU21D;54240;51.096;5.878;2023-08-20T13:40:14;34.07;-6.00
67358;HTU21D;54240;51.096;5.878;2023-08-20T13:42:40;34.14;-6.00
67358;HTU21D;54240;51.096;5.878;2023-08-20T13:45:06;33.83;-6.00
67358;HTU21D;54240;51.096;5.878;2023-08-20T13:47:32;33.72;-6.00
67358;HTU21D;54240;51.096;5.878;2023-08-20T13:49:58;33.80;-6.00
67358;HTU21D;54240;51.096;5.878;2023-08-20T13:52:24;33.70;-6.00
67358;HTU21D;54240;51.096;5.878;2023-08-20T13:54:50;33.29;-6.00
67358;HTU21D;54240;51.096;5.878;2023-08-20T13:57:16;32.68;-6.00
67358;HTU21D;54240;51.096;5.878;2023-08-20T13:59:42;32.44;-6.00
67358;HTU21D;54240;51.096;5.878;2023-08-20T14:02:08;32.48;-6.00
67358;HTU21D;54240;51.096;5.878;2023-08-20T14:04:35;32.39;-6.00
67358;HTU21D;54240;51.096;5.878;2023-08-20T14:07:01;32.58;-6.00
67358;HTU21D;54240;51.096;5.878;2023-08-20T14:09:27;32.88;-6.00
67358;HTU21D;54240;51.096;5.878;2023-08-20T14:11:53;32.76;-6.00
67358;HTU21D;54240;51.096;5.878;2023-08-20T14:14:19;32.37;-6.00
67358;HTU21D;54240;51.096;5.878;2023-08-20T14:16:45;32.15;-6.00
67358;HTU21D;54240;51.096;5.878;2023-08-20T14:19:11;32.30;-6.00
67358;HTU21D;54240;51.096;5.878;2023-08-20T14:21:37;32.66;-6.00
67358;HTU21D;54240;51.096;5.878;2023-08-20T14:24:03;32.81;-6.00
67358;HTU21D;54240;51.096;5.878;2023-08-20T14:26:29;32.88;-6.00
67358;HTU21D;54240;51.096;5.878;2023-08-20T14:28:55;32.59;-6.00
67358;HTU21D;54240;51.096;5.878;2023-08-20T14:31:21;32.56;-6.00
67358;HTU21D;54240;51.096;5.878;2023-08-20T14:33:47;32.53;-6.00
67358;HTU21D;54240;51.096;5.878;2023-08-20T14:36:13;32.18;-6.00
67358;HTU21D;54240;51.096;5.878;2023-08-20T14:38:39;32.29;-6.00
67358;HTU21D;54240;51.096;5.878;2023-08-20T14:41:04;32.08;-6.00
67358;HTU21D;54240;51.096;5.878;2023-08-20T14:43:32;31.88;-6.00
67358;HTU21D;54240;51.096;5.878;2023-08-20T14:45:58;31.74;-6.00
67358;HTU21D;54240;51.096;5.878;2023-08-20T14:48:24;31.93;-6.00
67358;HTU21D;54240;51.096;5.878;2023-08-20T14:50:50;31.94;-6.00
67358;HTU21D;54240;51.096;5.878;2023-08-20T14:53:17;31.76;-6.00
67358;HTU21D;54240;51.096;5.878;2023-08-20T14:55:44;31.79;-6.00
67358;HTU21D;54240;51.096;5.878;2023-08-20T14:58:10;32.07;-6.00
67358;HTU21D;54240;51.096;5.878;2023-08-20T15:00:36;32.43;-6.00
67358;HTU21D;54240;51.096;5.878;2023-08-20T15:03:03;32.48;-6.00
67358;HTU21D;54240;51.096;5.878;2023-08-20T15:05:30;32.61;-6.00
67358;HTU21D;54240;51.096;5.878;2023-08-20T15:07:56;32.62;-6.00
67358;HTU21D;54240;51.096;5.878;2023-08-20T15:10:22;32.64;-6.00
67358;HTU21D;54240;51.096;5.878;2023-08-20T15:12:48;32.49;-6.00
67358;HTU21D;54240;51.096;5.878;2023-08-20T15:15:14;32.59;-6.00
67358;HTU21D;54240;51.096;5.878;2023-08-20T15:17:40;32.63;-6.00
67358;HTU21D;54240;51.096;5.878;2023-08-20T15:20:06;32.43;-6.00
67358;HTU21D;54240;51.096;5.878;2023-08-20T15:22:39;32.40;-6.00
67358;HTU21D;54240;51.096;5.878;2023-08-20T15:25:06;32.57;-6.00
67358;HTU21D;54240;51.096;5.878;2023-08-20T15:27:37;32.17;-6.00